createdAt,value
2022-11-13T00:01:29.418Z,17.15
2022-11-13T00:04:49.674Z,20.50
2022-11-13T00:08:10.226Z,15.32
2022-11-13T00:11:30.244Z,15.18
2022-11-13T00:14:50.052Z,15.68
2022-11-13T00:18:09.969Z,14.70
2022-11-13T00:21:29.910Z,17.38
2022-11-13T00:24:49.788Z,14.80
2022-11-13T00:28:09.679Z,17.10
2022-11-13T00:31:29.989Z,14.50
2022-11-13T00:34:49.910Z,17.48
2022-11-13T00:38:09.776Z,13.90
2022-11-13T00:41:29.614Z,13.43
2022-11-13T00:44:49.419Z,13.95
2022-11-13T00:48:09.292Z,13.60
2022-11-13T00:51:29.335Z,15.45
2022-11-13T00:54:49.331Z,15.25
2022-11-13T00:58:09.377Z,16.08
2022-11-13T01:01:29.498Z,14.63
2022-11-13T01:04:49.429Z,16.20
2022-11-13T01:08:10.852Z,14.65
2022-11-13T01:11:31.145Z,14.40
2022-11-13T01:14:51.033Z,14.93
2022-11-13T01:18:11.482Z,12.75
2022-11-13T01:21:31.648Z,12.10
2022-11-13T01:24:51.402Z,12.13
2022-11-13T01:28:11.302Z,14.48
2022-11-13T01:31:31.453Z,13.93
2022-11-13T01:34:51.438Z,13.27
2022-11-13T01:38:11.582Z,11.18
2022-11-13T01:41:34.060Z,12.02
2022-11-13T01:44:56.343Z,12.07
2022-11-13T01:48:16.249Z,13.18
2022-11-13T01:51:41.127Z,13.18
2022-11-13T01:55:13.994Z,13.77
2022-11-13T01:58:34.835Z,15.35
2022-11-13T02:01:56.338Z,13.55
2022-11-13T02:05:16.122Z,13.73
2022-11-13T02:08:36.308Z,15.70
2022-11-13T02:11:57.064Z,14.05
2022-11-13T02:15:20.519Z,14.05
2022-11-13T02:18:41.896Z,14.73
2022-11-13T02:22:21.692Z,13.15
2022-11-13T02:25:44.769Z,14.52
2022-11-13T02:29:04.902Z,15.70
2022-11-13T02:32:24.621Z,15.57
2022-11-13T02:35:44.448Z,15.30
2022-11-13T02:39:09.049Z,15.20
2022-11-13T02:42:29.121Z,16.25
2022-11-13T02:45:49.016Z,18.00
2022-11-13T02:49:08.857Z,19.55
2022-11-13T02:52:30.101Z,20.85
2022-11-13T02:55:49.761Z,23.85
2022-11-13T02:59:09.533Z,24.33
2022-11-13T03:02:29.481Z,23.75
2022-11-13T03:05:49.967Z,25.02
2022-11-13T03:09:10.062Z,32.10
2022-11-13T03:12:29.966Z,30.10
2022-11-13T03:15:50.790Z,35.45
2022-11-13T03:19:10.962Z,31.55
2022-11-13T03:22:30.694Z,29.17
2022-11-13T03:25:50.493Z,25.33
2022-11-13T03:29:10.422Z,26.17
2022-11-13T03:32:30.343Z,27.13
2022-11-13T03:35:50.030Z,24.75
2022-11-13T03:39:10.035Z,30.40
2022-11-13T03:42:29.975Z,25.75
2022-11-13T03:45:49.791Z,28.83
2022-11-13T03:49:09.579Z,23.77
2022-11-13T03:52:29.546Z,25.60
2022-11-13T03:55:49.517Z,33.13
2022-11-13T03:59:09.397Z,34.97
2022-11-13T04:02:29.251Z,33.33
2022-11-13T04:05:50.447Z,29.75
2022-11-13T04:09:10.519Z,29.42
2022-11-13T04:12:30.419Z,34.03
2022-11-13T04:15:50.368Z,37.92
2022-11-13T04:19:10.209Z,32.67
2022-11-13T04:22:29.948Z,32.40
2022-11-13T04:25:49.696Z,36.13
2022-11-13T04:29:09.551Z,36.78
2022-11-13T04:32:29.476Z,34.25
2022-11-13T04:35:49.516Z,31.77
2022-11-13T04:39:09.600Z,33.20
2022-11-13T04:42:29.340Z,33.40
2022-11-13T04:45:52.401Z,30.70
2022-11-13T04:49:12.228Z,36.10
2022-11-13T04:52:32.320Z,36.25
2022-11-13T04:55:53.072Z,36.80
2022-11-13T04:59:12.956Z,38.83
2022-11-13T05:02:33.073Z,38.65
2022-11-13T05:05:53.112Z,40.70
2022-11-13T05:09:13.108Z,39.50
2022-11-13T05:12:33.006Z,39.97
2022-11-13T05:16:00.563Z,37.90
2022-11-13T05:19:20.770Z,34.88
2022-11-13T05:22:40.657Z,37.63
2022-11-13T05:26:12.414Z,36.15
2022-11-13T05:29:32.308Z,38.30
2022-11-13T05:32:52.271Z,36.35
2022-11-13T05:36:14.425Z,37.20
2022-11-13T05:39:34.116Z,38.65
2022-11-13T05:42:54.529Z,36.53
2022-11-13T05:46:18.999Z,34.50
2022-11-13T05:49:38.984Z,41.45
2022-11-13T05:52:58.869Z,39.88
2022-11-13T05:56:37.409Z,38.60
2022-11-13T05:59:57.303Z,40.05
2022-11-13T06:03:17.244Z,40.08
2022-11-13T06:06:37.309Z,39.63
2022-11-13T06:09:56.987Z,37.17
2022-11-13T06:13:16.914Z,38.60
2022-11-13T06:16:38.585Z,36.42
2022-11-13T06:19:58.567Z,39.75
2022-11-13T06:23:18.251Z,38.83
2022-11-13T06:26:38.913Z,40.42
2022-11-13T06:29:59.071Z,36.08
2022-11-13T06:33:18.902Z,36.70
2022-11-13T06:36:38.732Z,37.85
2022-11-13T06:39:58.536Z,41.15
2022-11-13T06:43:18.369Z,36.97
2022-11-13T06:46:38.192Z,34.30
2022-11-13T06:49:58.072Z,39.42
2022-11-13T06:53:17.918Z,38.22
2022-11-13T06:56:38.701Z,44.75
2022-11-13T06:59:58.764Z,34.85
2022-11-13T07:03:25.686Z,36.13
2022-11-13T07:06:45.430Z,38.00
2022-11-13T07:10:05.815Z,37.90
2022-11-13T07:13:27.311Z,38.88
2022-11-13T07:17:07.875Z,40.45
2022-11-13T07:20:27.791Z,43.25
2022-11-13T07:23:49.286Z,35.45
2022-11-13T07:27:09.075Z,41.33
2022-11-13T07:30:28.990Z,42.10
2022-11-13T07:33:49.848Z,40.65
2022-11-13T07:37:09.725Z,41.63
2022-11-13T07:40:29.751Z,38.50
2022-11-13T07:43:49.888Z,42.75
2022-11-13T07:47:09.541Z,43.10
2022-11-13T07:50:32.643Z,51.45
2022-11-13T07:53:52.886Z,47.13
2022-11-13T07:57:13.477Z,44.85
2022-11-13T08:00:35.512Z,44.97
2022-11-13T08:03:55.443Z,42.33
2022-11-13T08:07:15.386Z,40.35
2022-11-13T08:10:36.080Z,41.08
2022-11-13T08:13:55.986Z,40.85
2022-11-13T08:17:15.771Z,43.05
2022-11-13T08:20:35.671Z,39.90
2022-11-13T08:23:55.570Z,36.35
2022-11-13T08:27:15.374Z,39.00
2022-11-13T08:30:35.436Z,38.60
2022-11-13T08:33:55.428Z,39.20
2022-11-13T08:37:15.331Z,37.03
2022-11-13T08:40:35.836Z,36.60
2022-11-13T08:43:55.765Z,34.95
2022-11-13T08:47:15.700Z,33.13
2022-11-13T08:50:35.591Z,34.33
2022-11-13T08:53:55.501Z,33.30
2022-11-13T08:57:15.357Z,32.47
2022-11-13T09:00:35.204Z,28.90
2022-11-13T09:03:55.058Z,28.50
2022-11-13T09:07:14.878Z,31.85
2022-11-13T09:10:34.775Z,29.88
2022-11-13T09:13:54.993Z,27.58
2022-11-13T09:17:15.089Z,29.90
2022-11-13T09:20:35.202Z,32.08
2022-11-13T09:23:54.897Z,33.17
2022-11-13T09:27:14.701Z,30.55
2022-11-13T09:30:34.356Z,31.67
2022-11-13T09:33:54.227Z,30.48
2022-11-13T09:37:15.373Z,31.77
2022-11-13T09:40:47.330Z,31.15
2022-11-13T09:44:17.531Z,30.60
2022-11-13T09:47:43.922Z,29.77
2022-11-13T09:51:18.243Z,34.40
2022-11-13T09:54:38.657Z,28.35
2022-11-13T09:58:06.366Z,32.78
2022-11-13T10:01:33.407Z,31.70
2022-11-13T10:05:07.128Z,30.20
2022-11-13T10:08:31.330Z,31.90
2022-11-13T10:12:18.303Z,31.42
2022-11-13T10:15:40.236Z,33.78
2022-11-13T10:19:21.034Z,32.80
2022-11-13T10:22:50.996Z,32.30
2022-11-13T10:26:19.919Z,33.22
2022-11-13T10:29:44.635Z,32.97
2022-11-13T10:33:09.512Z,37.08
2022-11-13T10:36:40.832Z,30.67
2022-11-13T10:40:00.745Z,34.10
2022-11-13T10:43:23.572Z,37.92
2022-11-13T10:46:43.562Z,33.80
2022-11-13T10:50:23.514Z,31.98
2022-11-13T10:53:43.892Z,39.03
2022-11-13T10:57:18.549Z,38.22
2022-11-13T11:00:39.284Z,32.30
2022-11-13T11:03:59.338Z,35.42
2022-11-13T11:07:22.949Z,33.35
2022-11-13T11:14:30.531Z,32.40
2022-11-13T11:18:03.410Z,32.20
2022-11-13T11:21:28.537Z,36.75
2022-11-13T11:25:03.802Z,35.90
2022-11-13T11:28:30.056Z,35.05
2022-11-13T11:32:00.843Z,31.95
2022-11-13T11:35:24.862Z,33.33
2022-11-13T11:38:53.180Z,38.55
2022-11-13T11:42:41.061Z,33.83
2022-11-13T11:46:01.119Z,35.80
2022-11-13T11:49:25.483Z,29.67
2022-11-13T11:52:56.887Z,32.05
2022-11-13T11:56:31.197Z,37.03
2022-11-13T12:00:12.655Z,39.35
2022-11-13T12:03:48.918Z,33.05
2022-11-13T12:07:22.520Z,33.65
2022-11-13T12:10:59.833Z,36.85
2022-11-13T12:15:08.247Z,27.58
2022-11-13T12:18:40.301Z,29.83
2022-11-13T12:22:38.757Z,31.30
2022-11-13T12:26:13.796Z,29.70
2022-11-13T12:30:11.677Z,27.52
2022-11-13T12:33:34.424Z,29.58
2022-11-13T12:36:56.384Z,33.97
2022-11-13T12:40:43.968Z,34.35
2022-11-13T12:44:19.783Z,31.77
2022-11-13T12:47:39.808Z,32.83
2022-11-13T12:51:04.994Z,27.60
2022-11-13T12:54:33.735Z,28.33
2022-11-13T12:57:53.797Z,30.40
2022-11-13T13:01:19.203Z,26.77
2022-11-13T13:04:44.709Z,29.08
2022-11-13T13:08:18.213Z,24.73
2022-11-13T13:11:53.218Z,24.67
2022-11-13T13:15:30.225Z,26.83
2022-11-13T13:18:50.338Z,25.88
2022-11-13T13:22:23.671Z,24.40
2022-11-13T13:25:43.589Z,23.73
2022-11-13T13:29:24.499Z,26.38
2022-11-13T13:32:47.382Z,27.77
2022-11-13T13:36:29.562Z,23.50
2022-11-13T13:40:08.158Z,21.52
2022-11-13T13:44:00.551Z,25.88
2022-11-13T13:47:29.331Z,20.85
2022-11-13T13:50:51.718Z,22.83
2022-11-13T13:54:22.029Z,21.55
2022-11-13T13:57:42.207Z,24.67
2022-11-13T14:01:18.328Z,20.25
2022-11-13T14:04:50.419Z,20.65
2022-11-13T14:08:18.261Z,20.58
2022-11-13T14:11:38.412Z,21.02
2022-11-13T14:14:58.355Z,21.55
2022-11-13T14:18:18.186Z,21.27
2022-11-13T14:21:38.252Z,20.58
2022-11-13T14:25:01.000Z,20.95
2022-11-13T14:28:28.424Z,22.33
2022-11-13T14:31:48.619Z,22.48
2022-11-13T14:35:20.052Z,21.58
2022-11-13T14:38:52.194Z,22.63
2022-11-13T14:42:28.298Z,26.98
2022-11-13T14:46:03.614Z,22.80
2022-11-13T14:49:35.981Z,22.73
2022-11-13T14:52:59.866Z,25.40
2022-11-13T14:56:19.559Z,22.58
2022-11-13T14:59:40.090Z,25.77
2022-11-13T15:03:02.169Z,22.92
2022-11-13T15:06:25.515Z,21.80
2022-11-13T15:09:45.398Z,22.73
2022-11-13T15:13:12.040Z,29.83
2022-11-13T15:16:31.780Z,24.60
2022-11-13T15:19:53.530Z,30.00
2022-11-13T15:23:15.412Z,32.58
2022-11-13T15:26:35.309Z,31.35
2022-11-13T15:29:55.077Z,31.85
2022-11-13T15:33:16.195Z,36.30
2022-11-13T15:36:36.365Z,36.78
2022-11-13T15:39:56.257Z,34.58
2022-11-13T15:43:19.430Z,35.05
2022-11-13T15:46:39.715Z,38.00
2022-11-13T15:50:15.792Z,36.03
2022-11-13T15:53:36.592Z,36.83
2022-11-13T15:56:56.511Z,33.67
2022-11-13T16:00:19.077Z,36.22
2022-11-13T16:03:39.293Z,32.57
2022-11-13T16:06:59.159Z,34.22
2022-11-13T16:10:23.490Z,35.95
2022-11-13T16:17:05.529Z,29.23
2022-11-13T16:20:25.532Z,28.88
2022-11-13T16:23:46.011Z,27.80
2022-11-13T16:27:05.874Z,23.10
2022-11-13T16:30:25.792Z,20.90
2022-11-13T16:33:45.650Z,19.15
2022-11-13T16:37:13.422Z,19.02
2022-11-13T16:40:33.562Z,14.90
2022-11-13T16:43:53.586Z,13.60
2022-11-13T16:47:22.741Z,13.32
2022-11-13T16:50:43.030Z,13.43
2022-11-13T16:54:03.036Z,14.45
2022-11-13T16:57:22.793Z,15.02
2022-11-13T17:00:42.561Z,15.93
2022-11-13T17:04:02.717Z,13.57
2022-11-13T17:07:23.015Z,15.95
2022-11-13T17:10:43.248Z,15.20
2022-11-13T17:14:03.388Z,14.82
2022-11-13T17:17:23.701Z,14.20
2022-11-13T17:20:43.886Z,17.52
2022-11-13T17:24:04.125Z,15.60
2022-11-13T17:27:24.067Z,16.75
2022-11-13T17:30:43.805Z,12.52
2022-11-13T17:34:03.538Z,11.68
2022-11-13T17:37:25.342Z,14.55
2022-11-13T17:40:45.463Z,9.77
2022-11-13T17:44:05.586Z,9.57
2022-11-13T17:47:25.648Z,11.55
2022-11-13T17:50:45.496Z,10.35
2022-11-13T17:54:05.451Z,10.27
2022-11-13T17:57:27.109Z,10.95
2022-11-13T18:00:47.653Z,10.40
2022-11-13T18:04:07.775Z,11.23
2022-11-13T18:07:27.630Z,9.85
2022-11-13T18:10:47.324Z,11.05
2022-11-13T18:14:08.412Z,11.95
2022-11-13T18:17:28.610Z,11.00
2022-11-13T18:20:48.645Z,12.50
2022-11-13T18:24:13.036Z,11.73
2022-11-13T18:27:32.756Z,12.57
2022-11-13T18:30:56.434Z,13.50
2022-11-13T18:34:17.144Z,12.23
2022-11-13T18:37:37.192Z,12.07
2022-11-13T18:41:18.384Z,13.15
2022-11-13T18:44:38.296Z,11.52
2022-11-13T18:47:58.017Z,10.57
2022-11-13T18:51:23.333Z,10.75
2022-11-13T18:54:43.414Z,11.02
2022-11-13T18:58:03.351Z,11.00
2022-11-13T19:01:31.480Z,13.10
2022-11-13T19:04:51.650Z,10.00
2022-11-13T19:08:12.152Z,11.38
2022-11-13T19:11:32.300Z,10.85
2022-11-13T19:14:52.264Z,12.07
2022-11-13T19:18:12.348Z,12.40
2022-11-13T19:21:33.926Z,12.10
2022-11-13T19:24:54.145Z,12.85
2022-11-13T19:28:13.921Z,14.15
2022-11-13T19:31:33.674Z,11.52
2022-11-13T19:34:53.433Z,13.30
2022-11-13T19:38:13.354Z,16.02
2022-11-13T19:41:33.247Z,14.50
2022-11-13T19:44:52.976Z,14.77
2022-11-13T19:48:28.546Z,15.05
2022-11-13T19:51:48.408Z,15.27
2022-11-13T19:55:08.793Z,14.25
2022-11-13T19:58:29.197Z,14.85
2022-11-13T20:01:49.562Z,17.92
2022-11-13T20:05:10.177Z,16.00
2022-11-13T20:08:30.340Z,15.00
2022-11-13T20:11:50.725Z,16.75
2022-11-13T20:15:10.681Z,15.50
2022-11-13T20:18:31.267Z,18.20
2022-11-13T20:21:51.573Z,14.70
2022-11-13T20:25:11.437Z,17.33
2022-11-13T20:28:31.974Z,16.02
2022-11-13T20:31:52.198Z,16.17
2022-11-13T20:35:12.087Z,13.23
2022-11-13T20:38:32.114Z,14.70
2022-11-13T20:41:52.153Z,18.05
2022-11-13T20:45:11.987Z,19.70
2022-11-13T20:48:32.331Z,21.45
2022-11-13T20:51:57.026Z,20.13
2022-11-13T20:55:17.080Z,21.63
2022-11-13T20:58:37.277Z,22.48
2022-11-13T21:01:57.286Z,22.73
2022-11-13T21:05:17.273Z,22.58
2022-11-13T21:08:38.092Z,23.58
2022-11-13T21:11:58.185Z,22.00
2022-11-13T21:15:18.010Z,24.40
2022-11-13T21:18:37.783Z,23.67
2022-11-13T21:21:57.512Z,25.25
2022-11-13T21:25:17.299Z,26.35
2022-11-13T21:28:37.917Z,25.10
2022-11-13T21:31:58.029Z,25.48
2022-11-13T21:35:22.375Z,27.63
2022-11-13T21:38:42.818Z,26.02
2022-11-13T21:42:02.656Z,26.23
2022-11-13T21:45:22.413Z,26.80
2022-11-13T21:48:42.781Z,27.23
2022-11-13T21:52:03.028Z,25.88
2022-11-13T21:55:23.273Z,26.17
2022-11-13T21:58:43.295Z,26.02
2022-11-13T22:02:03.447Z,24.85
2022-11-13T22:05:23.414Z,25.52
2022-11-13T22:08:44.286Z,28.80
2022-11-13T22:12:04.397Z,25.98
2022-11-13T22:15:24.227Z,25.25
2022-11-13T22:18:44.165Z,25.80
2022-11-13T22:22:05.522Z,29.30
2022-11-13T22:25:25.382Z,28.17
2022-11-13T22:28:47.454Z,23.98
2022-11-13T22:32:07.339Z,29.23
2022-11-13T22:35:27.148Z,29.00
2022-11-13T22:38:47.438Z,27.58
2022-11-13T22:42:07.326Z,28.95
2022-11-13T22:45:27.190Z,28.90
2022-11-13T22:48:48.403Z,29.95
2022-11-13T22:52:08.479Z,30.55
2022-11-13T22:55:28.255Z,28.25
2022-11-13T22:58:48.308Z,28.42
2022-11-13T23:02:08.599Z,28.95
2022-11-13T23:05:28.400Z,32.28
2022-11-13T23:08:49.259Z,28.15
2022-11-13T23:12:09.040Z,29.73
2022-11-13T23:15:28.744Z,28.95
2022-11-13T23:18:50.252Z,28.25
2022-11-13T23:22:10.168Z,28.58
2022-11-13T23:25:32.470Z,28.15
2022-11-13T23:28:52.793Z,29.02
2022-11-13T23:32:12.644Z,29.60
2022-11-13T23:35:32.405Z,31.50
2022-11-13T23:38:52.185Z,27.90
2022-11-13T23:42:11.989Z,31.40
2022-11-13T23:45:32.018Z,31.67
2022-11-13T23:48:52.013Z,30.40
2022-11-13T23:52:11.961Z,29.30
2022-11-13T23:55:31.986Z,30.58
2022-11-13T23:58:52.559Z,31.73
